Aérodrome :
LOGIN :

S'inscrire | Disclaimer

   EN    FR    IT 

 










Légende :    VFR   VFR Marginal   IFR   IFR Intensif   IFR Très Intensif
Visi : 
Plafond : 
>= 8 km
>= 3000ft
5 à 8 km
1000 à 3000 ft
1500m à 5 km
500 à 1000 ft
800 à 1500m
200 à 500 ft
< 800m
< 200 ft
Symboles :   Orages  Brouillard  Fortes neiges  Fortes précipitations  Vent > 20 kt
SIGMETs :   Divers  Orages  Givrage  Turbulence  Onde Orograph.  Cendres Volcan.







- Altitude de l'aérodrome : 74 ft
- Code IATA : MRS
- Voir les cartes d'approche


LFML - Marseille / Marignane

DERNIER METAR :
  • 191430Z AUTO 10014KT 080V140 CAVOK 24/01 Q1024 NOSIG

METARs EXPIRÉS :
  • 191400Z AUTO 11016KT 080V140 9999 FEW009 24/02 Q1024 NOSIG
  • 191330Z AUTO 13015KT 090V150 CAVOK 24/03 Q1024 NOSIG
  • 191300Z AUTO 11017KT CAVOK 24/03 Q1025 NOSIG
  • 191230Z AUTO 10013KT 070V140 CAVOK 25/04 Q1025 NOSIG
  • 191200Z AUTO 08014KT 050V120 CAVOK 24/05 Q1025 NOSIG
  • 191130Z AUTO 09012KT 060V130 CAVOK 24/03 Q1025 NOSIG

TAF TAF LFML
Valide du 19 à 15h jusqu'au 20 à 21h UTC


191400Z 1915/2021 13013G23KT CAVOK TX24/1915Z TN11/2003Z
BECMG 1917/1919 VRB05KT
BECMG 1922/1924 09013KT
BECMG 2012/2014 13010KT
BECMG 2018/2019 08010G20KT
ATIS : +33 4 42 31 15 15
Pas de NOTAMs connus pour ce terrain.
2 SIGMETs publiés pour la FIR Marseille (LFMM) :
 
Turbulence forte
LFMM SIGMET 5 VALID 191300/191700 LFPW
LFMM MARSEILLE FIR/UIR SEV TURB FCST WI N4230 E00230 - N4415 E00245 - N4430 E00315 - N4415 E00345 - N4230 E00230 SFC/FL060 STNR NC=
Turbulence forte
LFMM SIGMET 4 VALID 191100/191500 LFPW
LFMM MARSEILLE FIR/UIR SEV TURB FCST WI N4345 E00730 - N4345 E00745 - N4245 E00645 - N4245 E00515 - N4330 E00530 - N4345 E00730 SFC/FL060 STNR WKN=



MET'MAP, la Météo Aéronautique d'un coup d'oeil ! - Copyright ORBIFLY Décembre 2007 - Disclaimer

ORBIFLY MET'MAP TEAM :

Programmation & Développement : Alexandra Zaïnal
Conception & Développement : Baudouin d'Aumeries
Co-Programmation & Développement : Marc-Olivier Méhu
Soutien technique & logistique : Manuel Goepfert

Contact : metmap@orbifly.com




SOURCES & CREDITS :

   NOAA